UAL280 KDEN-PANC
Flight info
| Callsign | UAL280 |
|---|---|
| Flight time | N/A |
| Altitude | 34000 |
| Route | DDRTH1 DDRTH DLN/N0455F360 FINUT YVR YZT KATCH B453 MDO WITTI5 |
| Aircraft | B38M/M-SDE1FGHILORVWXY/HB1 |
Departure
| Time | N/A |
|---|---|
| Airport | Denver International Airport (KDEN) |
Arrival
| Time | 2026-05-05 20:37 |
|---|---|
| Airport | Ted Stevens Anchorage International Airport (PANC) |
| Time | Latitude | Longitude | Altitude | Speed | Heading |
|---|---|---|---|---|---|
| 2026-05-05 20:37 | 61.16977 | -149.98056 | 117 ft | 65 kts | 90° |
| 2026-05-05 20:37 | 61.16979 | -149.97455 | 111 ft | 36 kts | 90° |
| 2026-05-05 20:37 | 61.16980 | -149.97071 | 106 ft | 21 kts | 90° |
| 2026-05-05 20:38 | 61.16980 | -149.96908 | 104 ft | 10 kts | 90° |
| 2026-05-05 20:38 | 61.17006 | -149.96807 | 102 ft | 10 kts | 20° |
| 2026-05-05 20:38 | 61.17089 | -149.96809 | 99 ft | 10 kts | 348° |
| 2026-05-05 20:38 | 61.17127 | -149.96892 | 100 ft | 8 kts | 283° |
| 2026-05-05 20:39 | 61.17127 | -149.97007 | 102 ft | 9 kts | 269° |
| 2026-05-05 20:39 | 61.17127 | -149.97132 | 103 ft | 8 kts | 270° |
| 2026-05-05 20:39 | 61.17126 | -149.97254 | 104 ft | 8 kts | 270° |
| 2026-05-05 20:39 | 61.17125 | -149.97368 | 106 ft | 7 kts | 262° |
| 2026-05-05 20:40 | 61.17119 | -149.97472 | 108 ft | 7 kts | 266° |
| 2026-05-05 20:40 | 61.17118 | -149.97574 | 110 ft | 7 kts | 270° |
| 2026-05-05 20:40 | 61.17118 | -149.97688 | 112 ft | 9 kts | 270° |
| 2026-05-05 20:40 | 61.17118 | -149.97824 | 112 ft | 10 kts | 270° |
| 2026-05-05 20:41 | 61.17117 | -149.97986 | 116 ft | 12 kts | 270° |
| 2026-05-05 20:41 | 61.17117 | -149.98186 | 117 ft | 16 kts | 270° |
| 2026-05-05 20:41 | 61.17117 | -149.98422 | 116 ft | 15 kts | 269° |
| 2026-05-05 20:41 | 61.17120 | -149.98618 | 117 ft | 12 kts | 282° |
| 2026-05-05 20:42 | 61.17169 | -149.98725 | 113 ft | 10 kts | 337° |
| 2026-05-05 20:42 | 61.17238 | -149.98775 | 112 ft | 10 kts | 351° |
| 2026-05-05 20:42 | 61.17295 | -149.98725 | 110 ft | 7 kts | 34° |
| 2026-05-05 20:42 | 61.17331 | -149.98636 | 113 ft | 8 kts | 56° |
| 2026-05-05 20:43 | 61.17337 | -149.98562 | 113 ft | 1 kts | 121° |
| 2026-05-05 20:43 | 61.17329 | -149.98548 | 113 ft | 2 kts | 142° |
| 2026-05-05 20:43 | 61.17315 | -149.98526 | 110 ft | 4 kts | 141° |
| 2026-05-05 20:43 | 61.17301 | -149.98501 | 112 ft | 0 kts | 140° |